Danville, Alabama
Current Conditions -  °F | °C
As of 4:35 AM on Monday 22 Dec 2014 (Local Time) from KCMD Reporting Station
Haze Haze  
Wind Chill: 44°   Ceiling: 400
Heat Index: 47°   Visibility: 3mi
Dew Point: 46°   Wind: 5mph
Humidity: 96%   Direction: 140°SE
Pressure: 29.98"   Gusts: NA
Location:  34.41°N, 87.08°W
Report Text: KCMD 221035Z AUTO 14004KT 3SM BR OVC004 08/08 A2998 RMK AO2 T00810075
Loading
Personal Weather Stations






























Interactive Weather Map New forecast layout! Learn more

10-Day Weather Forecast

Advertisements
Track Severe Weather on mobile